createdAt,value
2018-09-19T00:01:39.572Z,9.10
2018-09-19T00:04:08.088Z,9.87
2018-09-19T00:06:36.568Z,10.17
2018-09-19T00:09:07.392Z,10.63
2018-09-19T00:11:36.813Z,10.40
2018-09-19T00:14:05.439Z,12.03
2018-09-19T00:16:33.931Z,12.40
2018-09-19T00:19:02.511Z,11.37
2018-09-19T00:21:31.063Z,11.50
2018-09-19T00:24:00.607Z,11.00
2018-09-19T00:26:29.027Z,10.47
2018-09-19T00:28:57.512Z,11.37
2018-09-19T00:31:25.908Z,10.43
2018-09-19T00:33:54.883Z,9.70
2018-09-19T00:36:23.973Z,10.27
2018-09-19T00:38:52.472Z,10.00
2018-09-19T00:41:21.001Z,10.30
2018-09-19T00:43:49.494Z,10.50
2018-09-19T00:46:17.987Z,10.30
2018-09-19T00:48:46.696Z,11.07
2018-09-19T00:51:15.234Z,11.40
2018-09-19T00:53:44.108Z,11.67
2018-09-19T00:56:12.741Z,11.87
2018-09-19T00:58:41.580Z,11.63
2018-09-19T01:01:10.452Z,11.70
2018-09-19T01:03:38.876Z,11.93
2018-09-19T01:06:07.399Z,11.93
2018-09-19T01:08:36.317Z,12.30
2018-09-19T01:11:04.834Z,11.67
2018-09-19T01:13:34.560Z,12.10
2018-09-19T01:16:03.182Z,11.60
2018-09-19T01:18:31.987Z,11.67
2018-09-19T01:21:00.801Z,12.07
2018-09-19T01:23:29.291Z,11.20
2018-09-19T01:25:57.769Z,12.67
2018-09-19T01:28:27.172Z,11.37
2018-09-19T01:30:55.976Z,10.57
2018-09-19T01:33:25.131Z,10.53
2018-09-19T01:35:53.808Z,10.60
2018-09-19T01:38:22.317Z,10.27
2018-09-19T01:40:50.980Z,10.80
2018-09-19T01:43:19.614Z,10.73
2018-09-19T01:45:48.657Z,10.00
2018-09-19T01:48:17.140Z,10.40
2018-09-19T01:50:45.644Z,10.23
2018-09-19T01:53:14.157Z,9.90
2018-09-19T01:55:42.642Z,10.27
2018-09-19T01:58:11.282Z,9.83
2018-09-19T02:00:39.803Z,10.37
2018-09-19T02:03:08.338Z,10.87
2018-09-19T02:05:37.153Z,10.20
2018-09-19T02:08:05.936Z,10.87
2018-09-19T02:10:34.343Z,11.40
2018-09-19T02:13:03.729Z,11.33
2018-09-19T02:15:32.348Z,10.93
2018-09-19T02:18:00.877Z,11.77
2018-09-19T02:20:30.008Z,11.50
2018-09-19T02:22:58.503Z,10.87
2018-09-19T02:25:26.945Z,11.80
2018-09-19T02:27:55.498Z,11.30
2018-09-19T02:30:23.931Z,11.53
2018-09-19T02:32:52.618Z,11.97
2018-09-19T02:35:21.125Z,10.83
2018-09-19T02:37:50.530Z,9.97
2018-09-19T02:40:19.213Z,11.23
2018-09-19T02:42:47.726Z,11.33
2018-09-19T02:45:16.171Z,11.60
2018-09-19T02:47:45.241Z,12.13
2018-09-19T02:50:14.206Z,12.47
2018-09-19T02:52:42.661Z,13.57
2018-09-19T02:55:11.141Z,13.77
2018-09-19T02:57:39.621Z,12.83
2018-09-19T03:00:08.071Z,13.37
2018-09-19T03:02:36.498Z,13.47
2018-09-19T03:05:04.930Z,13.10
2018-09-19T03:07:33.292Z,13.10
2018-09-19T03:10:01.703Z,12.60
2018-09-19T03:12:30.266Z,13.43
2018-09-19T03:14:58.656Z,13.20
2018-09-19T03:17:27.143Z,13.47
2018-09-19T03:19:55.682Z,14.10
2018-09-19T03:22:24.180Z,13.50
2018-09-19T03:24:52.704Z,13.90
2018-09-19T03:27:21.351Z,14.33
2018-09-19T03:29:49.944Z,14.47
2018-09-19T03:32:18.461Z,13.03
2018-09-19T03:34:47.340Z,13.87
2018-09-19T03:37:15.901Z,13.73
2018-09-19T03:39:44.472Z,14.37
2018-09-19T03:42:12.943Z,14.50
2018-09-19T03:44:41.484Z,14.80
2018-09-19T03:47:10.102Z,12.57
2018-09-19T03:49:38.555Z,12.73
2018-09-19T03:52:07.063Z,13.33
2018-09-19T03:54:35.567Z,13.53
2018-09-19T03:57:04.040Z,13.60
2018-09-19T03:59:32.512Z,14.03
2018-09-19T04:02:00.904Z,13.73
2018-09-19T04:04:29.990Z,13.27
2018-09-19T04:06:58.364Z,14.30
2018-09-19T04:09:26.847Z,14.67
2018-09-19T04:11:55.404Z,15.27
2018-09-19T04:14:23.947Z,14.40
2018-09-19T04:16:52.518Z,14.53
2018-09-19T04:19:20.985Z,14.63
2018-09-19T04:21:53.398Z,14.23
2018-09-19T04:24:21.874Z,15.10
2018-09-19T04:26:50.546Z,15.40
2018-09-19T04:29:19.744Z,16.47
2018-09-19T04:31:48.796Z,16.13
2018-09-19T04:34:17.688Z,16.10
2018-09-19T04:36:46.400Z,16.87
2018-09-19T04:39:15.062Z,16.40
2018-09-19T04:41:43.761Z,16.97
2018-09-19T04:44:12.344Z,16.47
2018-09-19T04:46:40.929Z,15.73
2018-09-19T04:49:11.041Z,16.13
2018-09-19T04:51:40.613Z,15.33
2018-09-19T04:54:09.420Z,14.23
2018-09-19T04:56:38.519Z,15.57
2018-09-19T04:59:07.244Z,15.47
2018-09-19T05:01:35.788Z,16.40
2018-09-19T05:04:05.441Z,15.67
2018-09-19T05:06:34.315Z,15.87
2018-09-19T05:09:03.062Z,16.57
2018-09-19T05:11:31.803Z,15.57
2018-09-19T05:14:00.370Z,15.90
2018-09-19T05:16:28.829Z,16.83
2018-09-19T05:18:57.376Z,16.50
2018-09-19T05:21:26.834Z,15.80
2018-09-19T05:23:56.012Z,16.07
2018-09-19T05:26:24.629Z,17.13
2018-09-19T05:28:53.076Z,17.20
2018-09-19T05:31:21.751Z,16.63
2018-09-19T05:33:50.253Z,17.17
2018-09-19T05:36:18.665Z,16.27
2018-09-19T05:38:47.354Z,17.27
2018-09-19T05:41:16.266Z,17.30
2018-09-19T05:43:45.067Z,17.13
2018-09-19T05:46:13.579Z,16.73
2018-09-19T05:48:42.978Z,18.07
2018-09-19T05:51:11.809Z,17.27
2018-09-19T05:53:40.443Z,17.73
2018-09-19T05:56:09.066Z,18.20
2018-09-19T05:58:37.691Z,18.97
2018-09-19T06:01:06.353Z,16.77
2018-09-19T06:03:34.960Z,16.87
2018-09-19T06:06:04.302Z,16.90
2018-09-19T06:08:32.947Z,17.43
2018-09-19T06:11:01.652Z,16.97
2018-09-19T06:13:30.151Z,17.63
2018-09-19T06:15:58.858Z,17.10
2018-09-19T06:18:27.417Z,15.97
2018-09-19T06:20:55.987Z,15.27
2018-09-19T06:23:24.474Z,16.30
2018-09-19T06:25:53.084Z,15.10
2018-09-19T06:28:21.552Z,14.50
2018-09-19T06:30:50.012Z,12.93
2018-09-19T06:33:19.323Z,13.23
2018-09-19T06:35:48.277Z,13.23
2018-09-19T06:38:17.414Z,14.30
2018-09-19T06:40:45.930Z,13.70
2018-09-19T06:43:15.203Z,13.50
2018-09-19T06:45:43.861Z,13.03
2018-09-19T06:48:13.406Z,12.33
2018-09-19T06:50:41.964Z,12.97
2018-09-19T06:53:10.516Z,12.50
2018-09-19T06:55:39.018Z,13.77
2018-09-19T06:58:07.537Z,12.93
2018-09-19T07:00:36.094Z,11.90
2018-09-19T07:03:04.775Z,12.73
2018-09-19T07:05:33.385Z,11.03
2018-09-19T07:08:01.944Z,10.57
2018-09-19T07:10:31.140Z,11.03
2018-09-19T07:12:59.669Z,10.03
2018-09-19T07:15:28.279Z,10.33
2018-09-19T07:17:56.916Z,10.07
2018-09-19T07:20:25.544Z,10.10
2018-09-19T07:22:54.159Z,9.77
2018-09-19T07:25:22.899Z,8.87
2018-09-19T07:27:52.227Z,9.07
2018-09-19T07:30:21.557Z,9.17
2018-09-19T07:32:50.108Z,8.30
2018-09-19T07:35:18.738Z,8.20
2018-09-19T07:37:47.294Z,7.27
2018-09-19T07:40:16.010Z,7.73
2018-09-19T07:42:44.622Z,8.13
2018-09-19T07:45:13.219Z,7.67
2018-09-19T07:47:41.696Z,7.73
2018-09-19T07:50:10.310Z,7.40
2018-09-19T07:52:39.111Z,7.33
2018-09-19T07:55:07.864Z,7.50
2018-09-19T07:57:36.929Z,6.67
2018-09-19T08:00:05.681Z,5.97
2018-09-19T08:02:34.212Z,5.77
2018-09-19T08:05:02.733Z,4.93
2018-09-19T08:07:31.195Z,5.33
2018-09-19T08:09:59.675Z,4.90
2018-09-19T08:12:28.337Z,3.43
2018-09-19T08:14:57.064Z,3.80
2018-09-19T08:17:25.613Z,3.58
2018-09-19T08:19:54.422Z,3.00
2018-09-19T08:22:22.899Z,3.22
2018-09-19T08:24:51.448Z,2.52
2018-09-19T08:27:20.019Z,2.85
2018-09-19T08:29:48.991Z,3.40
2018-09-19T08:32:17.522Z,3.33
2018-09-19T08:34:46.142Z,2.87
2018-09-19T08:37:14.696Z,3.10
2018-09-19T08:39:43.240Z,3.17
2018-09-19T08:42:11.755Z,3.02
2018-09-19T08:44:40.390Z,4.25
2018-09-19T08:47:08.940Z,4.50
2018-09-19T08:49:37.481Z,4.03
2018-09-19T08:52:05.997Z,4.75
2018-09-19T08:54:34.650Z,3.52
2018-09-19T08:57:03.841Z,3.90
2018-09-19T08:59:32.439Z,3.85
2018-09-19T09:02:01.414Z,4.95
2018-09-19T09:04:30.190Z,4.95
2018-09-19T09:06:58.691Z,3.77
2018-09-19T09:09:27.150Z,4.10
2018-09-19T09:11:55.611Z,3.87
2018-09-19T09:14:25.135Z,4.45
2018-09-19T09:16:53.644Z,5.00
2018-09-19T09:19:22.094Z,4.67
2018-09-19T09:21:50.812Z,4.30
2018-09-19T09:24:19.267Z,4.47
2018-09-19T09:26:48.602Z,4.50
2018-09-19T09:29:17.003Z,3.80
2018-09-19T09:31:45.480Z,3.33
2018-09-19T09:34:14.132Z,3.08
2018-09-19T09:36:42.775Z,2.95
2018-09-19T09:39:11.210Z,3.40
2018-09-19T09:41:39.693Z,3.92
2018-09-19T09:44:08.450Z,3.58
2018-09-19T09:46:37.022Z,3.47
2018-09-19T09:49:05.827Z,3.87
2018-09-19T09:51:34.305Z,3.47
2018-09-19T09:54:02.868Z,3.47
2018-09-19T09:56:31.412Z,4.20
2018-09-19T09:58:59.980Z,3.67
2018-09-19T10:01:28.691Z,3.35
2018-09-19T10:03:57.129Z,3.62
2018-09-19T10:06:25.804Z,3.77
2018-09-19T10:08:54.525Z,3.58
2018-09-19T10:11:23.017Z,3.80
2018-09-19T10:13:51.489Z,4.08
2018-09-19T10:16:20.327Z,4.15
2018-09-19T10:18:48.809Z,3.70
2018-09-19T10:21:17.268Z,4.03
2018-09-19T10:23:45.858Z,3.62
2018-09-19T10:26:14.374Z,4.00
2018-09-19T10:28:42.904Z,4.53
2018-09-19T10:31:11.442Z,3.85
2018-09-19T10:33:40.071Z,4.22
2018-09-19T10:36:08.622Z,3.90
2018-09-19T10:38:37.172Z,3.60
2018-09-19T10:41:05.695Z,3.72
2018-09-19T10:43:34.157Z,4.28
2018-09-19T10:46:02.907Z,4.67
2018-09-19T10:48:31.424Z,4.00
2018-09-19T10:50:59.937Z,4.15
2018-09-19T10:53:28.371Z,4.08
2018-09-19T10:55:56.949Z,4.10
2018-09-19T10:58:25.480Z,4.72
2018-09-19T11:00:53.930Z,3.70
2018-09-19T11:03:22.399Z,4.20
2018-09-19T11:05:50.909Z,4.53
2018-09-19T11:08:20.519Z,4.70
2018-09-19T11:10:49.343Z,4.12
2018-09-19T11:13:18.186Z,4.47
2018-09-19T11:15:46.863Z,3.98
2018-09-19T11:18:15.501Z,4.08
2018-09-19T11:20:44.106Z,4.87
2018-09-19T11:23:12.951Z,4.95
2018-09-19T11:25:41.780Z,5.12
2018-09-19T11:28:10.909Z,4.60
2018-09-19T11:30:39.676Z,4.92
2018-09-19T11:33:08.191Z,4.58
2018-09-19T11:35:37.050Z,4.70
2018-09-19T11:38:05.831Z,4.22
2018-09-19T11:40:34.479Z,4.00
2018-09-19T11:43:03.163Z,4.20
2018-09-19T11:45:31.772Z,4.05
2018-09-19T11:48:00.490Z,3.55
2018-09-19T11:50:28.990Z,3.67
2018-09-19T11:52:57.868Z,3.62
2018-09-19T11:55:26.578Z,3.62
2018-09-19T11:57:55.878Z,4.10
2018-09-19T12:00:24.549Z,3.52
2018-09-19T12:02:53.336Z,3.58
2018-09-19T12:05:22.223Z,3.40
2018-09-19T12:07:50.949Z,3.92
2018-09-19T12:10:19.689Z,3.70
2018-09-19T12:12:48.380Z,3.15
2018-09-19T12:15:17.242Z,3.35
2018-09-19T12:17:45.933Z,3.55
2018-09-19T12:20:14.712Z,3.30
2018-09-19T12:22:44.086Z,3.17
2018-09-19T12:25:12.846Z,3.42
2018-09-19T12:27:41.942Z,3.02
2018-09-19T12:30:10.916Z,3.25
2018-09-19T12:32:39.578Z,3.77
2018-09-19T12:35:08.303Z,2.95
2018-09-19T12:37:37.148Z,3.15
2018-09-19T12:40:06.547Z,3.27
2018-09-19T12:42:35.124Z,3.33
2018-09-19T12:45:04.540Z,3.27
2018-09-19T12:47:33.210Z,3.35
2018-09-19T12:50:01.837Z,3.37
2018-09-19T12:52:30.606Z,3.72
2018-09-19T12:54:59.213Z,3.27
2018-09-19T12:57:28.506Z,3.00
2018-09-19T12:59:57.818Z,3.60
2018-09-19T13:02:26.479Z,3.60
2018-09-19T13:04:55.140Z,3.20
2018-09-19T13:07:23.923Z,3.50
2018-09-19T13:09:52.733Z,3.22
2018-09-19T13:12:21.452Z,2.98
2018-09-19T13:14:51.152Z,3.52
2018-09-19T13:17:21.777Z,3.52
2018-09-19T13:19:50.640Z,3.65
2018-09-19T13:22:19.263Z,3.50
2018-09-19T13:24:48.125Z,3.37
2018-09-19T13:27:17.642Z,3.75
2018-09-19T13:29:46.299Z,3.55
2018-09-19T13:32:15.084Z,3.55
2018-09-19T13:34:44.571Z,3.17
2018-09-19T13:37:13.359Z,3.42
2018-09-19T13:39:42.154Z,3.10
2018-09-19T13:42:10.841Z,3.17
2018-09-19T13:44:39.626Z,3.65
2018-09-19T13:47:08.414Z,3.37
2018-09-19T13:49:45.203Z,3.40
2018-09-19T13:52:13.817Z,3.40
2018-09-19T13:54:42.498Z,3.05
2018-09-19T13:57:11.184Z,3.58
2018-09-19T13:59:39.825Z,3.15
2018-09-19T14:02:08.608Z,3.83
2018-09-19T14:04:37.221Z,3.70
2018-09-19T14:07:05.921Z,3.30
2018-09-19T14:09:34.696Z,3.60
2018-09-19T14:12:04.039Z,3.95
2018-09-19T14:14:32.912Z,3.77
2018-09-19T14:17:01.601Z,3.70
2018-09-19T14:19:30.139Z,4.05
2018-09-19T14:21:58.673Z,3.00
2018-09-19T14:24:27.238Z,3.00
2018-09-19T14:26:56.502Z,3.80
2018-09-19T14:29:25.712Z,3.20
2018-09-19T14:31:54.236Z,3.50
2018-09-19T14:34:22.847Z,3.83
2018-09-19T14:36:51.412Z,3.20
2018-09-19T14:39:20.017Z,3.42
2018-09-19T14:41:48.674Z,3.92
2018-09-19T14:44:17.501Z,3.47
2018-09-19T14:46:46.225Z,3.80
2018-09-19T14:49:14.840Z,3.30
2018-09-19T14:51:43.538Z,2.90
2018-09-19T14:54:13.520Z,3.72
2018-09-19T14:56:42.033Z,3.52
2018-09-19T14:59:10.728Z,3.72
2018-09-19T15:01:39.999Z,3.83
2018-09-19T15:04:08.693Z,3.65
2018-09-19T15:06:37.341Z,3.72
2018-09-19T15:09:08.954Z,3.72
2018-09-19T15:11:37.561Z,3.70
2018-09-19T15:14:06.301Z,2.98
2018-09-19T15:16:35.516Z,3.02
2018-09-19T15:19:04.134Z,3.05
2018-09-19T15:21:32.916Z,3.10
2018-09-19T15:24:02.156Z,3.08
2018-09-19T15:26:30.676Z,3.70
2018-09-19T15:28:59.350Z,3.40
2018-09-19T15:31:28.901Z,3.27
2018-09-19T15:33:57.579Z,3.35
2018-09-19T15:36:26.402Z,3.52
2018-09-19T15:38:54.898Z,3.08
2018-09-19T15:41:23.423Z,3.47
2018-09-19T15:43:52.902Z,2.92
2018-09-19T15:46:22.608Z,3.55
2018-09-19T15:48:52.871Z,3.37
2018-09-19T15:51:22.521Z,3.30
2018-09-19T15:53:53.585Z,3.15
2018-09-19T15:56:23.219Z,3.65
2018-09-19T15:58:52.799Z,3.60
2018-09-19T16:01:22.615Z,3.40
2018-09-19T16:03:52.928Z,3.30
2018-09-19T16:06:22.428Z,3.98
2018-09-19T16:08:51.110Z,3.62
2018-09-19T16:11:20.010Z,4.25
2018-09-19T16:13:48.811Z,3.27
2018-09-19T16:16:18.062Z,3.40
2018-09-19T16:18:47.639Z,4.08
2018-09-19T16:21:18.557Z,2.95
2018-09-19T16:23:49.350Z,3.20
2018-09-19T16:26:20.896Z,3.55
2018-09-19T16:28:49.815Z,3.17
2018-09-19T16:31:18.685Z,3.25
2018-09-19T16:33:49.858Z,3.05
2018-09-19T16:36:19.597Z,3.08
2018-09-19T16:38:53.532Z,3.25
2018-09-19T16:41:22.885Z,3.70
2018-09-19T16:43:52.201Z,3.10
2018-09-19T16:46:23.356Z,3.58
2018-09-19T16:48:52.243Z,3.72
2018-09-19T16:51:30.172Z,3.30
2018-09-19T16:54:02.286Z,3.60
2018-09-19T16:56:33.900Z,3.60
2018-09-19T16:59:04.961Z,3.20
2018-09-19T17:01:34.055Z,3.80
2018-09-19T17:04:05.648Z,4.28
2018-09-19T17:06:40.577Z,3.90
2018-09-19T17:09:13.403Z,3.20
2018-09-19T17:11:43.881Z,3.67
2018-09-19T17:14:13.135Z,3.70
2018-09-19T17:16:42.444Z,3.65
2018-09-19T17:19:12.173Z,3.08
2018-09-19T17:21:42.873Z,3.45
2018-09-19T17:24:12.299Z,3.83
2018-09-19T17:26:41.476Z,3.62
2018-09-19T17:29:10.570Z,3.33
2018-09-19T17:31:39.492Z,3.40
2018-09-19T17:34:08.378Z,3.60
2018-09-19T17:36:37.203Z,3.20
2018-09-19T17:39:09.449Z,3.25
2018-09-19T17:41:38.749Z,3.65
2018-09-19T17:44:07.710Z,3.67
2018-09-19T17:46:38.124Z,3.72
2018-09-19T17:49:08.351Z,3.90
2018-09-19T17:51:37.578Z,4.30
2018-09-19T17:54:07.456Z,4.03
2018-09-19T17:56:37.157Z,3.80
2018-09-19T17:59:06.873Z,4.50
2018-09-19T18:01:36.600Z,4.37
2018-09-19T18:04:06.484Z,4.25
2018-09-19T18:06:35.393Z,4.40
2018-09-19T18:09:05.211Z,4.62
2018-09-19T18:11:34.179Z,4.90
2018-09-19T18:14:02.881Z,4.70
2018-09-19T18:16:32.710Z,4.20
2018-09-19T18:19:01.330Z,4.80
2018-09-19T18:21:30.052Z,5.28
2018-09-19T18:23:59.403Z,4.67
2018-09-19T18:26:28.542Z,5.13
2018-09-19T18:28:57.391Z,5.67
2018-09-19T18:31:27.284Z,5.85
2018-09-19T18:33:56.300Z,4.87
2018-09-19T18:36:25.152Z,4.67
2018-09-19T18:38:54.858Z,4.87
2018-09-19T18:41:23.572Z,5.40
2018-09-19T18:43:53.043Z,5.35
2018-09-19T18:46:23.466Z,5.33
2018-09-19T18:48:52.115Z,5.00
2018-09-19T18:51:20.812Z,4.90
2018-09-19T18:53:49.437Z,4.78
2018-09-19T18:56:19.220Z,4.77
2018-09-19T18:58:48.052Z,4.70
2018-09-19T19:01:16.469Z,4.30
2018-09-19T19:03:45.273Z,4.80
2018-09-19T19:06:14.916Z,4.30
2018-09-19T19:08:44.907Z,4.97
2018-09-19T19:11:15.066Z,4.20
2018-09-19T19:13:46.919Z,4.10
2018-09-19T19:16:16.624Z,4.50
2018-09-19T19:18:48.418Z,4.47
2018-09-19T19:21:17.160Z,4.20
2018-09-19T19:23:47.093Z,4.67
2018-09-19T19:26:16.241Z,4.87
2018-09-19T19:28:44.953Z,5.07
2018-09-19T19:31:13.810Z,4.13
2018-09-19T19:33:43.840Z,4.90
2018-09-19T19:36:13.042Z,4.53
2018-09-19T19:38:41.730Z,5.03
2018-09-19T19:41:10.413Z,3.97
2018-09-19T19:43:39.128Z,4.60
2018-09-19T19:46:07.818Z,4.63
2018-09-19T19:48:36.567Z,4.97
2018-09-19T19:51:05.220Z,4.73
2018-09-19T19:53:34.017Z,4.10
2018-09-19T19:56:02.811Z,4.43
2018-09-19T19:58:31.708Z,3.70
2018-09-19T20:01:00.486Z,4.27
2018-09-19T20:03:29.193Z,4.53
2018-09-19T20:05:58.063Z,4.13
2018-09-19T20:08:26.741Z,4.40
2018-09-19T20:10:55.451Z,3.70
2018-09-19T20:13:24.115Z,4.33
2018-09-19T20:15:53.059Z,3.93
2018-09-19T20:18:21.487Z,4.20
2018-09-19T20:20:49.908Z,4.30
2018-09-19T20:23:18.540Z,3.90
2018-09-19T20:25:47.278Z,3.90
2018-09-19T20:28:15.965Z,4.20
2018-09-19T20:30:44.603Z,4.07
2018-09-19T20:33:13.132Z,4.47
2018-09-19T20:35:44.179Z,3.63
2018-09-19T20:38:17.533Z,4.30
2018-09-19T20:40:52.704Z,4.47
2018-09-19T20:43:26.721Z,3.90
2018-09-19T20:46:02.344Z,3.73
2018-09-19T20:48:37.064Z,4.17
2018-09-19T20:51:09.400Z,4.30
2018-09-19T20:53:41.451Z,3.47
2018-09-19T20:56:14.277Z,4.40
2018-09-19T20:58:42.770Z,4.27
2018-09-19T21:01:11.415Z,3.97
2018-09-19T21:03:39.907Z,3.77
2018-09-19T21:06:08.376Z,4.13
2018-09-19T21:08:37.354Z,3.60
2018-09-19T21:11:06.046Z,4.30
2018-09-19T21:13:34.626Z,3.63
2018-09-19T21:16:03.099Z,4.13
2018-09-19T21:18:31.615Z,4.27
2018-09-19T21:21:00.108Z,4.37
2018-09-19T21:23:28.718Z,4.33
2018-09-19T21:25:57.215Z,4.13
2018-09-19T21:28:25.734Z,4.47
2018-09-19T21:30:54.410Z,4.20
2018-09-19T21:33:22.882Z,4.63
2018-09-19T21:35:51.581Z,6.27
2018-09-19T21:38:20.024Z,5.33
2018-09-19T21:40:48.515Z,5.27
2018-09-19T21:43:17.311Z,6.43
2018-09-19T21:45:46.808Z,6.97
2018-09-19T21:48:15.309Z,6.40
2018-09-19T21:50:43.777Z,6.83
2018-09-19T21:53:12.272Z,6.17
2018-09-19T21:55:40.724Z,7.03
2018-09-19T21:58:09.195Z,6.07
2018-09-19T22:00:37.731Z,5.30
2018-09-19T22:03:06.404Z,5.73
2018-09-19T22:05:34.857Z,6.33
2018-09-19T22:08:03.377Z,5.33
2018-09-19T22:10:31.932Z,5.37
2018-09-19T22:13:00.493Z,5.27
2018-09-19T22:15:29.046Z,4.77
2018-09-19T22:17:57.475Z,4.90
2018-09-19T22:20:25.974Z,5.10
2018-09-19T22:22:54.565Z,4.57
2018-09-19T22:25:23.096Z,4.80
2018-09-19T22:27:51.588Z,4.97
2018-09-19T22:30:20.375Z,5.47
2018-09-19T22:32:48.765Z,4.93
2018-09-19T22:35:17.152Z,5.40
2018-09-19T22:37:45.580Z,5.20
2018-09-19T22:40:14.038Z,5.10
2018-09-19T22:42:42.747Z,4.60
2018-09-19T22:45:11.238Z,4.80
2018-09-19T22:47:40.859Z,5.43
2018-09-19T22:50:09.367Z,5.77
2018-09-19T22:52:38.217Z,5.27
2018-09-19T22:55:06.839Z,5.40
2018-09-19T22:57:35.328Z,5.60
2018-09-19T23:00:03.772Z,4.73
2018-09-19T23:02:32.803Z,5.03
2018-09-19T23:05:01.281Z,5.27
2018-09-19T23:07:29.772Z,4.67
2018-09-19T23:09:58.536Z,5.13
2018-09-19T23:12:27.409Z,5.60
2018-09-19T23:14:55.906Z,5.17
2018-09-19T23:17:24.393Z,5.40
2018-09-19T23:19:52.870Z,4.97
2018-09-19T23:22:21.414Z,5.20
2018-09-19T23:24:49.819Z,5.80
2018-09-19T23:27:19.012Z,5.23
2018-09-19T23:29:47.586Z,4.83
2018-09-19T23:32:16.065Z,5.33
2018-09-19T23:34:44.526Z,4.90
2018-09-19T23:37:13.003Z,4.73
2018-09-19T23:39:41.511Z,5.20
2018-09-19T23:42:10.884Z,4.77
2018-09-19T23:44:39.388Z,5.40
2018-09-19T23:47:08.460Z,4.97
2018-09-19T23:49:36.998Z,4.70
2018-09-19T23:52:05.591Z,5.03
2018-09-19T23:54:35.150Z,4.43
2018-09-19T23:57:04.088Z,5.20
2018-09-19T23:59:32.605Z,4.47
